Time;durP1;ratioP1;P1;durP2;ratioP2;P2;SDS_P1;SDS_P2;PMS_P1;PMS_P2;Temp;Humidity;BMP_temperature;BMP_pressure;BME280_temperature;BME280_humidity;BME280_pressure;Samples;Min_cycle;Max_cycle;Signal;HPM_P1;HPM_P2
2021/12/22 00:02:14;;;;;;;8.70;4.50;;;;;;;-19.13;61.07;98979.56;4823785;29;20077;-74
2021/12/22 00:04:44;;;;;;;9.07;4.03;;;;;;;-19.09;62.36;98987.34;4823640;29;20073;-71
2021/12/22 00:07:10;;;;;;;9.95;5.30;;;;;;;-19.13;62.03;98992.25;4824096;29;20041;-73
2021/12/22 00:09:35;;;;;;;9.48;4.57;;;;;;;-19.32;61.06;98984.00;4807271;29;20041;-73
2021/12/22 00:12:01;;;;;;;2.15;1.88;;;;;;;-19.21;62.11;98986.94;4826421;29;20057;-73
2021/12/22 00:14:26;;;;;;;4.57;3.03;;;;;;;-19.11;62.92;98971.19;4828040;29;20497;-77
2021/12/22 00:16:51;;;;;;;4.78;3.00;;;;;;;-19.12;61.16;98973.66;4797361;29;20546;-79
2021/12/22 00:19:16;;;;;;;10.93;4.22;;;;;;;-19.02;62.64;98975.72;4811997;29;20523;-71
2021/12/22 00:21:40;;;;;;;5.35;3.03;;;;;;;-19.03;61.57;98982.47;4826324;29;20041;-71
2021/12/22 00:24:05;;;;;;;10.07;4.65;;;;;;;-19.00;61.28;98981.72;4779165;29;20573;-70
2021/12/22 00:26:30;;;;;;;3.75;2.60;;;;;;;-18.95;61.67;98990.31;4811366;29;20064;-71
2021/12/22 00:28:55;;;;;;;4.57;2.97;;;;;;;-18.89;61.92;98978.72;4792975;29;20042;-70
2021/12/22 00:31:21;;;;;;;7.35;2.38;;;;;;;-18.76;61.40;98980.00;4810182;29;20491;-70
2021/12/22 00:33:50;;;;;;;3.75;2.80;;;;;;;-18.67;61.70;98985.38;4809619;29;20050;-76
2021/12/22 00:36:17;;;;;;;10.35;4.47;;;;;;;-18.96;60.07;98989.50;4792590;29;20052;-73
2021/12/22 00:38:43;;;;;;;9.27;4.28;;;;;;;-18.99;60.47;98997.00;4792329;29;20536;-73
2021/12/22 00:41:09;;;;;;;11.70;5.10;;;;;;;-19.14;60.41;99004.09;4790864;29;20045;-70
2021/12/22 00:43:35;;;;;;;8.82;3.80;;;;;;;-18.97;61.09;99003.00;4791222;29;20049;-73
2021/12/22 00:46:00;;;;;;;7.85;3.88;;;;;;;-18.96;60.21;99011.50;4793649;29;20447;-76
2021/12/22 00:48:25;;;;;;;8.48;2.75;;;;;;;-19.01;60.04;99008.78;4791795;29;20038;-71
2021/12/22 00:50:50;;;;;;;7.43;3.63;;;;;;;-19.06;59.69;99012.81;4807656;29;20052;-67
2021/12/22 00:53:16;;;;;;;2.67;2.00;;;;;;;-18.92;60.65;99016.72;4792414;29;20114;-68
2021/12/22 00:55:41;;;;;;;3.95;2.33;;;;;;;-18.89;60.75;99004.13;4809167;29;20083;-69
2021/12/22 00:58:06;;;;;;;11.30;4.63;;;;;;;-18.95;61.34;99005.56;4808521;29;20049;-69
2021/12/22 01:00:31;;;;;;;3.00;1.58;;;;;;;-18.91;61.21;99010.81;4791851;29;20409;-72
2021/12/22 01:02:56;;;;;;;6.32;3.80;;;;;;;-18.87;60.84;99009.25;4776640;29;20405;-69
2021/12/22 01:05:22;;;;;;;3.90;2.20;;;;;;;-18.84;60.55;99009.34;4791008;29;20487;-69
2021/12/22 01:07:48;;;;;;;5.85;2.55;;;;;;;-18.91;60.45;99010.81;4807354;29;20046;-67
2021/12/22 01:10:16;;;;;;;4.75;3.47;;;;;;;-19.03;60.36;99009.53;4775629;29;20520;-69
2021/12/22 01:12:42;;;;;;;4.65;2.30;;;;;;;-18.92;61.46;99000.59;4808293;29;20148;-71
2021/12/22 01:15:11;;;;;;;7.07;3.22;;;;;;;-19.07;60.33;99002.66;4792178;29;20077;-71
2021/12/22 01:17:43;;;;;;;8.63;3.95;;;;;;;-19.09;60.05;99006.81;4791006;29;20520;-67
2021/12/22 01:20:34;;;;;;;7.63;4.03;;;;;;;-19.14;59.25;99014.25;4790499;29;20049;-70
2021/12/22 01:23:03;;;;;;;8.50;4.38;;;;;;;-19.09;59.93;99000.03;4790393;29;20597;-71
2021/12/22 01:25:30;;;;;;;6.72;3.95;;;;;;;-19.17;60.17;99009.06;4795173;29;20066;-69
2021/12/22 01:27:55;;;;;;;2.72;1.70;;;;;;;-19.11;60.34;99003.34;4810181;29;20056;-67
2021/12/22 01:30:23;;;;;;;6.65;2.85;;;;;;;-18.99;61.11;99007.16;4815795;29;20046;-69
2021/12/22 01:32:51;;;;;;;6.45;3.42;;;;;;;-19.01;60.11;99018.06;4798163;29;20097;-73
2021/12/22 01:35:18;;;;;;;5.97;3.67;;;;;;;-18.94;59.43;99015.78;4813361;29;20078;-68
2021/12/22 01:37:44;;;;;;;9.27;3.78;;;;;;;-18.89;59.81;99014.28;4793461;29;20508;-70
2021/12/22 01:40:12;;;;;;;5.35;2.70;;;;;;;-18.82;60.31;99016.19;4790388;29;20041;-71
2021/12/22 01:42:38;;;;;;;6.32;3.33;;;;;;;-18.71;60.00;99013.16;4807907;29;20513;-71
2021/12/22 01:45:36;;;;;;;6.50;3.55;;;;;;;-18.75;59.16;99006.25;4807668;29;20053;-70
2021/12/22 01:50:48;;;;;;;3.30;2.30;;;;;;;-18.56;61.38;98999.25;4808237;29;20052;-70
2021/12/22 01:53:21;;;;;;;11.70;4.32;;;;;;;-18.69;60.38;99001.38;4807360;29;20489;-73
2021/12/22 01:58:44;;;;;;;5.05;2.25;;;;;;;-18.67;60.15;99003.16;4808406;29;20107;-70
2021/12/22 02:01:10;;;;;;;4.05;2.10;;;;;;;-18.86;60.32;98993.19;4807575;29;20188;-70
2021/12/22 02:03:38;;;;;;;7.53;3.40;;;;;;;-19.01;59.75;98996.09;4806782;29;20050;-68
2021/12/22 02:06:05;;;;;;;4.30;2.53;;;;;;;-18.83;60.30;99001.78;4790140;29;20053;-69
2021/12/22 02:08:30;;;;;;;6.85;3.25;;;;;;;-18.76;60.59;99002.00;4806714;29;20073;-74
2021/12/22 02:10:55;;;;;;;6.80;4.05;;;;;;;-18.81;59.76;99000.16;4789926;29;20084;-67
2021/12/22 02:13:28;;;;;;;7.07;3.28;;;;;;;-18.84;59.26;99002.59;4790293;29;20103;-74
2021/12/22 02:15:52;;;;;;;7.13;3.63;;;;;;;-18.99;60.69;99001.22;4791281;29;20080;-72
2021/12/22 02:18:19;;;;;;;9.48;5.38;;;;;;;-19.15;61.14;99003.22;4806775;29;20050;-71
2021/12/22 02:20:49;;;;;;;6.00;3.25;;;;;;;-19.07;61.04;98998.41;4805934;29;20041;-69
2021/12/22 02:23:15;;;;;;;4.65;3.15;;;;;;;-18.97;60.95;99005.53;4807748;29;20045;-73
2021/12/22 02:25:49;;;;;;;5.45;3.80;;;;;;;-19.11;61.66;99008.41;4799754;29;20152;-73
2021/12/22 02:28:21;;;;;;;4.82;3.47;;;;;;;-18.98;61.66;99010.56;4801104;29;20071;-67
2021/12/22 02:30:46;;;;;;;2.28;2.03;;;;;;;-18.92;61.82;99001.47;4809170;29;20041;-77
2021/12/22 02:33:26;;;;;;;4.05;2.20;;;;;;;-18.80;62.23;98995.94;4810256;29;20076;-75
2021/12/22 02:38:36;;;;;;;11.07;4.25;;;;;;;-18.75;61.56;98991.03;4808630;29;20080;-66
2021/12/22 02:41:01;;;;;;;10.75;3.75;;;;;;;-18.75;62.75;98988.47;4793138;29;20050;-71
2021/12/22 02:43:31;;;;;;;14.30;4.68;;;;;;;-18.69;62.33;98994.59;4808411;29;20072;-72
2021/12/22 02:45:56;;;;;;;9.55;5.55;;;;;;;-18.69;62.47;98981.03;4824972;29;20045;-68
2021/12/22 02:48:23;;;;;;;16.90;8.60;;;;;;;-18.90;61.99;98987.16;4807957;29;20053;-66
2021/12/22 02:50:48;;;;;;;11.23;5.10;;;;;;;-18.90;61.63;98999.84;4807257;29;20124;-67
2021/12/22 02:53:15;;;;;;;13.13;5.22;;;;;;;-18.86;61.43;98986.44;4823814;29;20105;-67
2021/12/22 02:58:12;;;;;;;18.38;7.82;;;;;;;-18.84;61.65;98987.34;4823787;29;20447;-67
2021/12/22 03:03:27;;;;;;;7.97;3.50;;;;;;;-18.70;62.42;98985.25;4807700;29;20048;-69
2021/12/22 03:05:52;;;;;;;8.93;5.35;;;;;;;-18.75;61.51;98980.84;4824812;29;20417;-70
2021/12/22 03:08:17;;;;;;;10.77;5.05;;;;;;;-18.84;62.19;98984.78;4808192;29;20389;-73
2021/12/22 03:10:42;;;;;;;11.07;5.68;;;;;;;-18.91;61.99;98989.63;4824361;29;20048;-68
2021/12/22 03:13:06;;;;;;;5.78;2.83;;;;;;;-18.82;62.25;98982.31;4808386;29;20060;-74
2021/12/22 03:15:32;;;;;;;7.70;3.95;;;;;;;-18.88;61.55;98979.59;4824739;29;20060;-75
2021/12/22 03:17:57;;;;;;;6.60;4.70;;;;;;;-18.91;62.50;98987.97;4825024;29;20057;-73
2021/12/22 03:20:22;;;;;;;5.10;2.42;;;;;;;-18.90;63.33;98982.06;4809227;29;20049;-74
2021/12/22 03:22:47;;;;;;;7.30;4.32;;;;;;;-18.87;63.05;98984.72;4793890;29;20057;-72
2021/12/22 03:25:16;;;;;;;9.10;4.53;;;;;;;-18.93;62.41;98988.72;4807134;29;20081;-74
2021/12/22 03:27:43;;;;;;;7.75;4.10;;;;;;;-18.87;62.61;98996.56;4823031;29;20060;-71
2021/12/22 03:30:10;;;;;;;9.75;6.20;;;;;;;-18.87;61.99;98992.34;4824436;29;20557;-66
2021/12/22 03:32:35;;;;;;;11.20;5.40;;;;;;;-18.99;61.82;98996.13;4824014;29;20112;-67
2021/12/22 03:34:59;;;;;;;11.00;3.95;;;;;;;-18.93;63.15;98991.25;4806911;29;20042;-65
2021/12/22 03:37:24;;;;;;;8.73;4.32;;;;;;;-18.92;63.43;98993.84;4823871;29;20046;-65
2021/12/22 03:39:49;;;;;;;11.93;4.38;;;;;;;-18.86;62.45;98999.16;4823910;29;20049;-64
2021/12/22 03:42:14;;;;;;;9.48;4.18;;;;;;;-18.76;62.00;98995.22;4823798;29;20049;-64
2021/12/22 03:44:39;;;;;;;0.80;0.77;;;;;;;-18.69;62.97;99002.22;4807350;29;20046;-66
2021/12/22 03:47:07;;;;;;;6.80;4.13;;;;;;;-18.70;62.43;99015.75;4825001;29;20045;-64
2021/12/22 03:49:33;;;;;;;12.30;4.72;;;;;;;-18.69;62.20;99003.91;4827437;29;20051;-64
2021/12/22 03:51:57;;;;;;;7.07;4.40;;;;;;;-18.71;61.51;99006.41;4827563;29;20049;-63
2021/12/22 03:54:23;;;;;;;6.55;3.40;;;;;;;-18.77;61.05;98998.59;4827675;29;20052;-64
2021/12/22 03:56:49;;;;;;;11.65;5.07;;;;;;;-18.90;61.29;99016.78;4827355;29;20057;-64
2021/12/22 03:59:14;;;;;;;5.72;3.35;;;;;;;-18.97;61.92;99014.84;4827412;29;20045;-65
2021/12/22 04:01:39;;;;;;;8.00;3.83;;;;;;;-18.98;61.63;99013.97;4826341;29;20069;-66
2021/12/22 04:04:11;;;;;;;4.20;2.83;;;;;;;-18.89;62.02;99026.97;4827046;29;20041;-63
2021/12/22 04:06:38;;;;;;;7.50;3.08;;;;;;;-18.76;62.30;99014.69;4827393;29;20060;-63
2021/12/22 04:09:03;;;;;;;8.15;3.25;;;;;;;-19.00;60.85;99020.69;4811109;29;20132;-66
2021/12/22 04:11:28;;;;;;;12.02;2.90;;;;;;;-18.88;61.95;99025.31;4827681;29;20041;-64
2021/12/22 04:13:52;;;;;;;3.47;2.28;;;;;;;-18.94;61.43;99020.88;4810272;29;20056;-64
2021/12/22 04:16:17;;;;;;;4.20;2.42;;;;;;;-19.12;62.12;99027.88;4826667;29;20052;-64
2021/12/22 04:18:42;;;;;;;8.68;4.88;;;;;;;-19.12;62.07;99032.94;4810255;29;20443;-64
2021/12/22 10:51:05;;;;;;;8.45;4.47;;;;;;;-15.82;49.49;99073.97;5147682;23;20180;-66
2021/12/22 10:53:49;;;;;;;5.47;2.75;;;;;;;-15.76;50.89;99073.22;4845379;29;20052;-65
2021/12/22 10:56:38;;;;;;;3.47;1.88;;;;;;;-15.76;50.79;99080.03;4843993;29;20055;-66
2021/12/22 10:59:18;;;;;;;8.77;3.92;;;;;;;-16.26;50.26;99084.78;4861400;29;20044;-66
2021/12/22 11:02:31;;;;;;;4.75;3.65;;;;;;;-16.34;50.88;99088.81;4829408;29;20045;-67
2021/12/22 11:04:44;;;;;;;6.60;3.75;;;;;;;-16.37;51.34;99088.75;4858743;29;20067;-66
2021/12/22 11:07:21;;;;;;;8.55;4.40;;;;;;;-16.73;50.24;99086.13;4861938;29;20517;-67
2021/12/22 11:09:49;;;;;;;6.72;3.45;;;;;;;-16.50;51.30;99094.38;4846819;29;20388;-65
2021/12/22 11:12:17;;;;;;;5.97;4.07;;;;;;;-16.53;51.22;99096.81;4862802;29;20163;-67
2021/12/22 11:14:53;;;;;;;8.98;4.80;;;;;;;-16.63;51.01;99099.16;4862425;29;20127;-66
2021/12/22 11:17:20;;;;;;;10.95;4.93;;;;;;;-16.64;50.38;99100.00;4845432;29;20108;-66
2021/12/22 11:20:00;;;;;;;9.80;3.40;;;;;;;-16.77;50.72;99105.56;4861555;29;20048;-66
2021/12/22 11:22:57;;;;;;;3.63;2.05;;;;;;;-16.74;50.95;99105.66;4844629;29;20112;-66
2021/12/22 11:25:22;;;;;;;5.25;3.10;;;;;;;-16.81;50.93;99119.03;4843784;29;20149;-67
2021/12/22 11:27:51;;;;;;;6.18;2.88;;;;;;;-16.75;51.27;99128.56;4861319;29;20097;-65
2021/12/22 11:30:15;;;;;;;4.30;2.85;;;;;;;-16.97;51.41;99127.09;4861150;29;20045;-67
2021/12/22 11:32:43;;;;;;;7.05;3.75;;;;;;;-16.89;52.02;99124.75;4861052;29;20541;-66
2021/12/22 11:35:11;;;;;;;10.15;3.80;;;;;;;-16.99;52.01;99126.19;4844393;29;20525;-66
2021/12/22 11:37:38;;;;;;;4.38;2.00;;;;;;;-16.94;52.75;99142.50;4845251;29;20044;-66
2021/12/22 11:40:05;;;;;;;4.13;3.20;;;;;;;-16.97;52.69;99139.84;4845193;29;20041;-66
2021/12/22 11:42:37;;;;;;;7.25;3.20;;;;;;;-17.09;52.05;99137.81;4829545;29;20140;-67
2021/12/22 11:45:04;;;;;;;10.55;4.50;;;;;;;-17.13;51.69;99146.16;4828753;29;20537;-66
2021/12/22 11:47:34;;;;;;;9.40;3.50;;;;;;;-17.14;52.01;99144.44;4861041;29;20131;-66
2021/12/22 11:50:03;;;;;;;4.43;2.75;;;;;;;-17.13;52.24;99148.72;4860865;29;20064;-66
2021/12/22 11:53:00;;;;;;;3.00;2.42;;;;;;;-17.21;52.44;99146.78;4844585;29;20507;-66
2021/12/22 11:55:47;;;;;;;4.40;2.53;;;;;;;-17.20;52.80;99146.81;4828962;29;20045;-66
2021/12/22 11:58:34;;;;;;;6.18;2.90;;;;;;;-17.21;52.69;99139.13;4861103;29;20503;-67
2021/12/22 12:01:11;;;;;;;2.88;2.40;;;;;;;-17.18;52.96;99151.97;4844071;29;20104;-68
2021/12/22 12:03:45;;;;;;;6.78;2.58;;;;;;;-17.15;53.42;99155.44;4860931;29;20050;-70
2021/12/22 12:06:17;;;;;;;7.22;3.40;;;;;;;-17.19;52.79;99155.31;4860421;29;20084;-69
2021/12/22 12:08:50;;;;;;;9.80;5.13;;;;;;;-17.41;52.85;99162.31;4862949;29;20051;-68
2021/12/22 12:11:20;;;;;;;;;;;;;;;-17.49;53.45;99161.19;4847819;29;20040;-68
2021/12/22 12:13:55;;;;;;;6.82;4.80;;;;;;;-17.68;53.33;99164.91;4863978;29;19919;-69
2021/12/22 12:22:28;;;;;;;9.50;4.85;;;;;;;-17.91;53.62;99178.56;4864124;29;20115;-66
2021/12/22 12:25:07;;;;;;;9.25;4.70;;;;;;;-18.20;54.17;99177.59;4864001;29;20044;-72
2021/12/22 12:27:56;;;;;;;9.40;3.72;;;;;;;-18.01;54.30;99178.19;4847388;29;20518;-69
2021/12/22 12:30:42;;;;;;;9.68;3.83;;;;;;;-18.11;54.56;99182.13;4847691;29;20037;-70
2021/12/22 12:33:32;;;;;;;5.18;2.85;;;;;;;-18.29;54.67;99191.69;4848055;29;20571;-71
2021/12/22 12:36:06;;;;;;;1.90;1.80;;;;;;;-18.21;55.67;99192.81;4831107;29;20053;-70
2021/12/22 12:38:37;;;;;;;;;;;;;;;-18.26;55.84;99191.75;4847334;29;20068;-69
2021/12/22 12:41:11;;;;;;;9.75;4.43;;;;;;;-18.56;53.99;99192.44;4863231;29;19923;-70
2021/12/22 12:43:52;;;;;;;8.90;5.13;;;;;;;-18.90;55.48;99203.09;4848879;29;20529;-70
2021/12/22 12:46:27;;;;;;;2.75;1.65;;;;;;;-18.79;56.69;99203.47;4831547;29;20051;-70
2021/12/22 12:49:04;;;;;;;3.25;2.72;;;;;;;-18.84;56.15;99210.91;4861652;29;20036;-70
2021/12/22 12:51:42;;;;;;;7.75;4.57;;;;;;;-18.95;56.65;99212.19;4862677;29;20105;-69
2021/12/22 12:54:09;;;;;;;5.88;2.83;;;;;;;-18.86;56.28;99217.66;4862739;29;20131;-69
2021/12/22 12:56:35;;;;;;;16.00;3.97;;;;;;;-18.90;57.43;99214.94;4830638;29;20183;-70
2021/12/22 12:59:37;;;;;;;5.63;2.47;;;;;;;-18.82;57.60;99221.16;4855861;29;20112;-70
2021/12/22 13:02:06;;;;;;;8.23;3.15;;;;;;;-18.82;56.70;99209.31;4846209;29;20414;-69
2021/12/22 13:04:33;;;;;;;12.43;5.75;;;;;;;-19.03;57.32;99218.69;4830437;29;20112;-70
2021/12/22 13:07:05;;;;;;;9.63;2.53;;;;;;;-18.77;57.49;99218.78;4862997;29;20048;-70
2021/12/22 13:09:34;;;;;;;9.80;4.82;;;;;;;-18.85;57.66;99224.47;4846048;29;20048;-69
2021/12/22 13:12:18;;;;;;;7.35;3.53;;;;;;;-18.71;56.78;99219.00;4846272;29;20100;-71
2021/12/22 13:17:48;;;;;;;1.65;1.35;;;;;;;-18.84;57.32;99227.84;4830467;29;20048;-70
2021/12/22 13:20:20;;;;;;;9.20;4.82;;;;;;;-19.08;57.20;99222.72;4861978;29;20136;-70
2021/12/22 13:22:51;;;;;;;3.38;2.38;;;;;;;-18.92;57.52;99229.25;4846601;29;20059;-70
2021/12/22 13:25:27;;;;;;;6.78;3.45;;;;;;;-18.96;57.36;99237.56;4846877;29;20132;-70
2021/12/22 13:28:02;;;;;;;3.38;3.08;;;;;;;-19.00;56.93;99234.03;4863423;29;20045;-70
2021/12/22 13:30:35;;;;;;;5.30;2.30;;;;;;;-19.04;57.20;99226.22;4862819;29;20040;-70
2021/12/22 13:33:07;;;;;;;12.02;4.97;;;;;;;-19.19;58.10;99236.69;4862873;29;20514;-70
2021/12/22 13:35:40;;;;;;;5.13;3.58;;;;;;;-19.19;57.53;99235.03;4830367;29;20044;-70
2021/12/22 13:38:10;;;;;;;2.28;1.42;;;;;;;-19.09;57.10;99233.69;4868109;29;20052;-70
2021/12/22 13:41:00;;;;;;;9.75;5.15;;;;;;;-19.26;58.13;99245.72;4859728;29;20116;-71
2021/12/22 13:43:36;;;;;;;4.20;2.35;;;;;;;-19.20;57.06;99248.53;4852366;29;20070;-70
2021/12/22 13:46:07;;;;;;;3.08;2.55;;;;;;;-19.09;57.58;99250.59;4870000;29;20060;-71
2021/12/22 13:48:54;;;;;;;3.30;2.22;;;;;;;-19.07;57.85;99251.53;4848059;29;20544;-70
2021/12/22 13:51:23;;;;;;;3.47;2.03;;;;;;;-19.00;57.89;99261.13;4817292;29;20061;-70
2021/12/22 13:53:51;;;;;;;7.63;4.18;;;;;;;-19.14;57.07;99250.41;4862430;29;20525;-69
2021/12/22 13:56:17;;;;;;;8.88;3.78;;;;;;;-19.22;57.08;99256.88;4862377;29;20059;-71
2021/12/22 13:58:56;;;;;;;6.70;4.03;;;;;;;-19.28;58.07;99261.69;4862904;29;20048;-69
2021/12/22 14:01:22;;;;;;;8.05;4.43;;;;;;;-19.53;57.77;99257.38;4861516;29;20059;-69
2021/12/22 14:04:01;;;;;;;5.55;2.50;;;;;;;-19.45;57.19;99257.66;4862551;29;20590;-70
2021/12/22 14:06:28;;;;;;;1.63;1.23;;;;;;;-19.31;58.61;99267.56;4789253;29;20544;-69
2021/12/22 14:09:17;;;;;;;4.60;2.45;;;;;;;-19.33;57.32;99266.63;4789670;29;20060;-70
2021/12/22 14:11:49;;;;;;;11.32;4.93;;;;;;;-19.31;57.78;99267.56;4803055;29;20157;-67
2021/12/22 14:14:36;;;;;;;5.57;2.85;;;;;;;-19.22;58.09;99267.91;4789909;29;20106;-70
2021/12/22 14:17:05;;;;;;;2.45;1.98;;;;;;;-19.17;57.46;99273.16;4789743;29;20060;-70
2021/12/22 14:19:36;;;;;;;10.50;5.25;;;;;;;-19.47;57.75;99265.19;4804754;29;20085;-70
2021/12/22 14:22:16;;;;;;;8.50;4.45;;;;;;;-19.35;57.00;99274.97;4789628;29;20119;-71
2021/12/22 14:24:52;;;;;;;9.93;4.68;;;;;;;-19.32;57.55;99280.19;4805582;29;20163;-72
2021/12/22 14:27:29;;;;;;;13.98;5.20;;;;;;;-19.53;56.84;99275.16;4805898;29;20060;-73
2021/12/22 14:29:55;;;;;;;4.00;3.22;;;;;;;-19.37;57.24;99276.56;4805024;29;20055;-73
2021/12/22 14:32:30;;;;;;;5.72;1.98;;;;;;;-19.26;58.01;99273.66;4804132;29;20049;-69
2021/12/22 14:35:00;;;;;;;3.65;2.90;;;;;;;-19.28;57.50;99277.81;4803691;29;20543;-71
2021/12/22 14:37:29;;;;;;;8.93;4.82;;;;;;;-19.35;58.02;99275.84;4815478;29;20092;-69
2021/12/22 14:39:57;;;;;;;5.43;4.07;;;;;;;-19.50;57.35;99269.31;4860948;29;20113;-68
2021/12/22 14:42:28;;;;;;;5.82;3.97;;;;;;;-19.57;57.62;99276.69;4861337;29;20055;-69
2021/12/22 14:45:19;;;;;;;9.63;5.50;;;;;;;-19.65;58.39;99270.44;4845326;29;20100;-68
2021/12/22 14:47:59;;;;;;;6.07;2.58;;;;;;;-19.55;58.34;99266.59;4863238;29;20074;-69
2021/12/22 14:50:27;;;;;;;6.65;3.80;;;;;;;-19.47;58.25;99271.94;4844071;29;20480;-68
2021/12/22 14:53:00;;;;;;;11.60;7.03;;;;;;;-19.56;57.95;99280.97;4860491;29;20063;-74
2021/12/22 14:55:39;;;;;;;1.85;1.20;;;;;;;-19.38;57.62;99279.91;4844425;29;20100;-71
2021/12/22 14:58:04;;;;;;;5.30;3.42;;;;;;;-19.43;58.12;99277.22;4861542;29;20040;-70
2021/12/22 15:00:36;;;;;;;6.95;2.92;;;;;;;-19.36;57.13;99283.38;4828759;29;20055;-69
2021/12/22 15:03:06;;;;;;;;;;;;;;;-19.27;58.59;99283.75;4844329;29;20048;-71
2021/12/22 15:05:32;;;;;;;11.02;5.15;;;;;;;-19.30;57.69;99276.91;4860027;29;19942;-70
2021/12/22 15:07:59;;;;;;;5.18;3.78;;;;;;;-19.41;57.40;99289.97;4845471;29;20045;-75
2021/12/22 15:10:30;;;;;;;8.23;4.63;;;;;;;-19.38;57.59;99283.31;4863479;29;20071;-74
2021/12/22 15:12:55;;;;;;;5.07;3.25;;;;;;;-19.43;57.62;99289.03;4861613;29;20044;-69
2021/12/22 15:15:20;;;;;;;1.58;0.95;;;;;;;-19.33;57.31;99291.13;4861430;29;20049;-70
2021/12/22 15:17:46;;;;;;;7.72;5.03;;;;;;;-19.65;58.43;99283.13;4861278;29;20052;-71
2021/12/22 15:20:14;;;;;;;9.43;5.10;;;;;;;-19.66;58.88;99285.59;4844317;29;20526;-67
2021/12/22 15:22:39;;;;;;;10.25;5.93;;;;;;;-19.67;58.31;99294.00;4843892;29;20401;-72
2021/12/22 15:25:07;;;;;;;5.57;3.50;;;;;;;-19.61;58.47;99295.13;4814565;29;20488;-76
2021/12/22 15:27:32;;;;;;;7.18;3.88;;;;;;;-19.52;58.26;99284.47;4861968;29;20059;-75
2021/12/22 15:29:58;;;;;;;4.18;2.78;;;;;;;-19.40;58.57;99282.38;4862635;29;20044;-76
2021/12/22 15:32:22;;;;;;;9.55;5.15;;;;;;;-19.59;58.27;99285.91;4830739;29;20068;-73
2021/12/22 15:34:52;;;;;;;7.97;4.53;;;;;;;-19.61;58.57;99272.28;4814255;29;20056;-77
2021/12/22 15:37:17;;;;;;;7.07;3.05;;;;;;;-19.50;59.13;99276.91;4845842;29;20059;-74
2021/12/22 15:39:46;;;;;;;4.10;2.58;;;;;;;-19.36;58.40;99280.84;4846014;29;20522;-74
2021/12/22 15:42:11;;;;;;;1.90;1.58;;;;;;;-19.36;58.96;99284.25;4841811;29;20099;-69
2021/12/22 15:44:39;;;;;;;5.75;3.42;;;;;;;-19.29;58.85;99295.50;4815204;29;20051;-70
2021/12/22 15:47:08;;;;;;;4.72;2.50;;;;;;;-19.22;58.74;99292.44;4844288;29;20584;-70
2021/12/22 15:49:36;;;;;;;5.28;2.65;;;;;;;-19.20;58.33;99283.22;4846820;29;20057;-71
2021/12/22 15:52:06;;;;;;;5.03;3.25;;;;;;;-19.22;58.30;99273.00;4849864;29;20051;-69
2021/12/22 15:54:57;;;;;;;10.57;5.43;;;;;;;-19.41;57.79;99278.16;4838761;29;20044;-74
2021/12/22 15:57:24;;;;;;;8.77;4.22;;;;;;;-19.36;58.99;99275.78;4830993;29;20048;-70
2021/12/22 15:59:54;;;;;;;7.20;2.92;;;;;;;-19.35;58.65;99275.84;4830820;29;20096;-68
2021/12/22 16:02:21;;;;;;;8.68;4.32;;;;;;;-19.44;58.06;99277.16;4846709;29;20289;-69
2021/12/22 16:04:49;;;;;;;10.93;6.15;;;;;;;-19.47;58.11;99270.28;4863181;29;20064;-67
2021/12/22 16:07:42;;;;;;;10.00;5.35;;;;;;;-19.41;58.63;99282.34;4863277;29;20487;-67
2021/12/22 16:10:12;;;;;;;7.40;3.42;;;;;;;-19.41;58.46;99289.97;4847219;29;20091;-70
2021/12/22 16:12:39;;;;;;;13.23;5.28;;;;;;;-19.46;58.83;99293.97;4863601;29;20527;-73
2021/12/22 16:15:07;;;;;;;15.73;6.70;;;;;;;-19.61;58.93;99291.72;4847200;29;20045;-73
2021/12/22 16:17:57;;;;;;;11.38;6.05;;;;;;;-19.69;58.71;99293.06;4847234;29;20069;-71
2021/12/22 16:20:24;;;;;;;8.80;4.25;;;;;;;-19.66;60.09;99294.06;4863779;29;20037;-71
2021/12/22 16:22:52;;;;;;;12.43;5.00;;;;;;;-19.55;59.48;99305.53;4847276;29;20091;-71
2021/12/22 16:25:17;;;;;;;5.72;3.75;;;;;;;-19.45;59.86;99298.25;4831761;29;20455;-71
2021/12/22 16:27:42;;;;;;;11.73;5.40;;;;;;;-19.55;59.71;99313.16;4846837;29;20499;-71
2021/12/22 16:30:08;;;;;;;11.23;6.20;;;;;;;-19.66;60.08;99304.22;4831681;29;20104;-71
2021/12/22 16:32:34;;;;;;;8.48;4.20;;;;;;;-19.68;59.29;99303.28;4847064;29;20132;-71
2021/12/22 16:34:58;;;;;;;9.82;4.32;;;;;;;-19.69;60.69;99306.63;4846461;29;20135;-71
2021/12/22 16:37:24;;;;;;;22.05;7.10;;;;;;;-19.75;59.88;99308.06;4863874;29;20055;-71
2021/12/22 16:39:51;;;;;;;15.52;7.22;;;;;;;-19.76;60.53;99297.03;4863206;29;20054;-71
2021/12/22 16:42:16;;;;;;;15.02;7.38;;;;;;;-19.69;60.34;99296.47;4863365;29;20048;-71
2021/12/22 16:44:42;;;;;;;15.05;6.45;;;;;;;-19.71;59.89;99308.22;4847302;29;20083;-74
2021/12/22 16:47:08;;;;;;;12.40;3.95;;;;;;;-19.53;60.00;99303.06;4817630;29;20048;-74
2021/12/22 16:49:37;;;;;;;13.18;5.82;;;;;;;-19.54;59.18;99294.59;4846399;29;20403;-72
2021/12/22 16:52:06;;;;;;;6.10;3.80;;;;;;;-19.47;59.72;99299.88;4863326;29;20131;-73
2021/12/22 16:54:32;;;;;;;13.93;5.60;;;;;;;-19.53;59.61;99310.69;4864243;29;20048;-75
2021/12/22 16:56:57;;;;;;;4.78;3.42;;;;;;;-19.62;60.73;99311.13;4847415;29;20052;-75
2021/12/22 16:59:22;;;;;;;7.38;4.32;;;;;;;-19.59;60.79;99306.19;4848106;29;20064;-74
2021/12/22 17:01:52;;;;;;;5.57;3.05;;;;;;;-19.46;59.99;99307.53;4847882;29;20052;-76
2021/12/22 17:04:18;;;;;;;6.50;3.83;;;;;;;-19.46;60.37;99316.81;4847342;29;20071;-71
2021/12/22 17:06:45;;;;;;;9.70;3.35;;;;;;;-19.41;59.27;99302.66;4862091;29;20055;-70
2021/12/22 17:09:11;;;;;;;9.60;5.43;;;;;;;-19.70;59.71;99312.50;4862907;29;20304;-71
2021/12/22 17:11:36;;;;;;;10.02;5.80;;;;;;;-19.78;59.25;99307.91;4845308;29;20045;-70
2021/12/22 17:14:02;;;;;;;14.10;5.45;;;;;;;-19.89;60.72;99312.53;4831510;29;20074;-76
2021/12/22 17:16:30;;;;;;;10.82;5.55;;;;;;;-19.81;60.88;99305.25;4863485;29;20055;-71
2021/12/22 17:18:58;;;;;;;7.57;4.93;;;;;;;-19.77;60.67;99312.19;4864362;29;20071;-70
2021/12/22 17:21:23;;;;;;;3.72;2.63;;;;;;;-19.66;60.58;99296.63;4862845;29;20477;-69
2021/12/22 17:23:50;;;;;;;12.38;4.72;;;;;;;-19.71;60.43;99297.22;4846801;29;20044;-74
2021/12/22 17:26:17;;;;;;;14.95;6.38;;;;;;;-19.64;60.95;99292.47;4847413;29;20052;-76
2021/12/22 17:28:45;;;;;;;13.75;5.15;;;;;;;-19.49;60.94;99298.97;4863909;29;20055;-73
2021/12/22 17:31:10;;;;;;;7.00;4.45;;;;;;;-19.52;60.31;99298.03;4831469;29;20487;-76
2021/12/22 17:33:36;;;;;;;5.00;2.33;;;;;;;-19.37;60.59;99292.69;4862961;29;20040;-76
2021/12/22 17:36:28;;;;;;;6.47;4.00;;;;;;;-19.47;60.25;99295.66;4867080;29;20055;-75
2021/12/22 17:38:58;;;;;;;18.73;8.05;;;;;;;-19.58;59.98;99299.47;4864074;29;20051;-75
2021/12/22 17:41:24;;;;;;;22.08;8.60;;;;;;;-19.49;59.94;99309.09;4853251;29;20044;-74
2021/12/22 17:43:52;;;;;;;12.70;5.25;;;;;;;-19.66;60.26;99309.31;4868796;29;20051;-73
2021/12/22 17:46:20;;;;;;;9.98;6.13;;;;;;;-19.55;61.21;99310.63;4857361;29;20051;-76
2021/12/22 17:48:46;;;;;;;14.52;6.15;;;;;;;-19.45;60.37;99316.03;4865312;29;20176;-73
2021/12/22 17:51:11;;;;;;;7.97;2.90;;;;;;;-19.37;59.92;99312.13;4868303;29;20068;-75
2021/12/22 17:54:06;;;;;;;6.38;3.63;;;;;;;-19.34;60.68;99318.19;4845675;29;20103;-70
2021/12/22 17:56:33;;;;;;;9.00;5.45;;;;;;;-19.37;60.15;99310.44;4840370;29;20061;-69
2021/12/22 17:59:26;;;;;;;8.82;4.10;;;;;;;-19.43;60.25;99315.28;4868830;29;20081;-76
2021/12/22 18:01:57;;;;;;;12.68;6.28;;;;;;;-19.62;60.65;99328.91;4869711;29;20051;-74
2021/12/22 18:04:26;;;;;;;7.30;4.65;;;;;;;-19.57;60.73;99309.69;4840473;29;20049;-72
2021/12/22 18:06:53;;;;;;;13.48;6.57;;;;;;;-19.71;61.05;99312.44;4841988;29;20542;-70
2021/12/22 18:09:43;;;;;;;8.80;5.10;;;;;;;-19.52;60.51;99306.47;4869225;29;20042;-74
2021/12/22 18:12:09;;;;;;;15.25;6.68;;;;;;;-19.62;61.21;99311.13;4841040;29;20045;-74
2021/12/22 18:14:37;;;;;;;4.10;3.40;;;;;;;-19.58;60.63;99313.00;4835281;29;20048;-73
2021/12/22 18:17:03;;;;;;;13.55;7.35;;;;;;;-19.60;61.77;99313.75;4845402;29;20052;-73
2021/12/22 18:19:35;;;;;;;14.93;6.38;;;;;;;-19.52;60.73;99312.38;4866338;29;20127;-78
2021/12/22 18:21:59;;;;;;;10.90;4.57;;;;;;;-19.47;60.70;99315.09;4865796;29;20055;-75
2021/12/22 18:24:49;;;;;;;6.10;2.88;;;;;;;-19.40;60.14;99312.84;4864830;29;20047;-74
2021/12/22 18:27:14;;;;;;;6.47;3.40;;;;;;;-19.33;60.00;99319.06;4881083;29;20126;-76
2021/12/22 18:29:39;;;;;;;5.07;3.70;;;;;;;-19.36;60.25;99309.66;4850406;29;20561;-80
2021/12/22 18:35:28;;;;;;;7.25;3.85;;;;;;;-19.37;61.06;99314.66;4865587;29;20075;-77